• Join FlightAware (Why Join?)
  • Login
  • US Flag 
10:58PM EDT


 

Airport Tracker/Info


-or-


 

Live Flight TrackerFlight Track Log ✈ SKW7423 ✈ 15-Oct-2013 ✈ KLAX - KPDX

Flight Track Log - Related Links

Times and Time Zones

All times are in EDT time to prevent confusion due to time zone crossing. See the SKW7423 flight status page for this flight to view local times or setup timezone preferences in your user account.

Time Position Orientation Groundspeed Altitude Reporting Facility
EDT Latitude Longitude Course Direction KTS MPH feet Rate Location/Type
09:35PM 33.9333 -118.4667 345° North 205 236 3,000  Level Southern California TRACON
09:37PM 33.9236 -118.5672 263° West 255 293 3,500 1,740 Climbing Los Angeles Center
09:38PM 33.9436 -118.6497 286° West 273 314 7,000 2,640 Climbing Los Angeles Center
09:39PM 34.0186 -118.6681 349° North 262 302 9,000 960 Climbing Los Angeles Center
09:40PM 34.0925 -118.6603 North 266 306 9,000 300 Level Los Angeles Center
09:41PM 34.5667 -118.5991 345° North  Level Estimated
09:41PM 34.1639 -118.6703 353° North 260 299 9,700  Level Los Angeles Center
09:42PM 34.2492 -118.6831 353° North 304 350 12,100 2,640 Climbing Los Angeles Center
09:43PM 34.3369 -118.7050 348° North 322 371 15,200 2,640 Climbing Los Angeles Center
09:44PM 34.4269 -118.7339 345° North 334 384 17,600 2,340 Climbing Los Angeles Center
09:45PM 34.5217 -118.7647 345° North 352 405 20,100 2,400 Climbing Los Angeles Center
09:46PM 34.6172 -118.7978 344° North 358 412 22,600 2,400 Climbing Los Angeles Center
09:47PM 34.7372 -118.8397 344° North 372 428 25,100 2,160 Climbing Los Angeles Center
09:48PM 34.8411 -118.8775 343° North 385 443 27,100 1,680 Climbing Los Angeles Center
09:49PM 34.9406 -118.9117 344° North 392 451 28,600 1,380 Climbing Los Angeles Center
09:50PM 35.0492 -118.9503 344° North 402 463 30,000 660 Climbing Los Angeles Center
09:51PM 35.1639 -118.9933 343° North 427 491 30,000 900 Level Los Angeles Center
09:52PM 35.3056 -119.0433 344° North 441 507 31,900 1,620 Climbing Los Angeles Center
09:53PM 35.4211 -119.0869 343° North 437 503 33,400 1,440 Climbing Los Angeles Center
09:54PM 35.5353 -119.1300 343° North 433 498 34,900 1,440 Climbing Los Angeles Center
09:55PM 35.6492 -119.1719 343° North 429 494 36,400 1,440 Climbing Los Angeles Center
09:56PM 35.7606 -119.2133 343° North 423 487 37,900 780 Climbing Los Angeles Center
09:57PM 35.8703 -119.2547 343° North 415 478 38,000 60 Climbing Los Angeles Center
09:58PM 35.9564 -119.2867 343° North 415 478 38,000  Level Oakland Center
09:59PM 36.0650 -119.3267 343° North 412 474 38,000  Level Oakland Center
10:00PM 36.1736 -119.3681 343° North 409 471 38,000  Level Oakland Center
10:01PM 36.2819 -119.4094 343° North 408 470 38,000  Level Oakland Center
10:02PM 36.3883 -119.4492 343° North 403 464 38,000  Level Oakland Center
10:03PM 36.4969 -119.4906 343° North 407 468 38,000  Level Oakland Center
10:04PM 36.6056 -119.5311 343° North 410 472 38,000  Level Oakland Center
10:05PM 36.7150 -119.5739 343° North 413 475 38,000  Level Oakland Center
10:06PM 36.8239 -119.6153 343° North 409 471 38,000  Level Oakland Center
10:07PM 36.9306 -119.6569 343° North 403 464 38,000  Level Oakland Center
10:08PM 37.0578 -119.7058 343° North 401 461 38,000  Level Oakland Center
10:09PM 37.1656 -119.7478 343° North 404 465 38,000  Level Oakland Center
10:10PM 37.2753 -119.7897 343° North 410 472 38,000  Level Oakland Center
10:11PM 37.3808 -119.8311 343° North 407 468 38,000  Level Oakland Center
10:12PM 37.4897 -119.8736 343° North 409 471 38,000  Level Oakland Center
10:13PM 37.5978 -119.9167 342° North 407 468 38,000  Level Oakland Center
10:14PM 37.7067 -119.9592 343° North 409 471 38,000  Level Oakland Center
10:15PM 37.8147 -120.0022 343° North 406 467 38,000  Level Oakland Center
10:16PM 37.9231 -120.0433 343° North 406 467 38,000  Level Oakland Center
10:17PM 38.0294 -120.0856 343° North 403 464 38,000  Level Oakland Center
10:18PM 38.1567 -120.1361 343° North 400 460 38,000  Level Oakland Center
10:19PM 38.2622 -120.1786 342° North 399 459 38,000  Level Oakland Center
10:20PM 38.3678 -120.2208 343° North 401 461 38,000  Level Oakland Center
10:21PM 38.4736 -120.2625 343° North 400 460 38,000  Level Oakland Center
10:22PM 38.5783 -120.3044 343° North 397 457 38,000  Level Oakland Center
10:23PM 38.6833 -120.3478 342° North 398 458 38,000  Level Oakland Center
10:24PM 38.7883 -120.3886 343° North 397 457 38,000  Level Oakland Center
10:25PM 38.8933 -120.4317 342° North 399 459 38,000  Level Oakland Center
10:26PM 38.9986 -120.4739 343° North 399 459 38,000  Level Oakland Center
10:27PM 39.1036 -120.5161 343° North 398 458 38,000  Level Oakland Center
10:28PM 39.2292 -120.5678 342° North 396 456 38,000  Level Oakland Center
10:29PM 39.3331 -120.6103 342° North 393 452 38,000  Level Oakland Center
10:30PM 39.4358 -120.6528 342° North 390 449 38,000  Level Oakland Center
10:31PM 39.5383 -120.6936 343° North 387 445 38,000  Level Oakland Center
10:32PM 39.6411 -120.7383 341° North 390 449 38,000  Level Oakland Center
10:33PM 39.7417 -120.7797 342° North 382 440 38,000  Level Oakland Center
10:35PM 39.8447 -120.8211 343° North 388 447 38,000  Level Oakland Center
10:36PM 39.9461 -120.8656 341° North 385 443 38,000  Level Oakland Center
10:37PM 40.0531 -120.9089 343° North 387 445 38,000  Level Oakland Center
10:38PM 40.1544 -120.9517 342° North 385 443 38,000  Level Oakland Center
10:39PM 40.2567 -120.9944 342° North 387 445 38,000  Level Oakland Center
10:40PM 40.3806 -121.0464 342° North 389 448 38,000  Level Oakland Center
10:41PM 40.4828 -121.0914 341° North 386 444 38,000  Level Oakland Center
10:42PM 40.5683 -121.1278 342° North 391 450 38,000  Level Oakland Center
10:43PM 40.6914 -121.1803 342° North 387 445 38,000  Level Oakland Center
10:44PM 40.7956 -121.2250 342° North 392 451 38,000  Level Oakland Center
10:45PM 40.8969 -121.2706 341° North 396 456 38,000  Level Oakland Center
10:46PM 41.0011 -121.3144 342° North 395 455 38,000  Level Oakland Center
10:47PM 41.1067 -121.3622 341° North 393 452 38,000  Level Oakland Center
10:48PM 41.2111 -121.4047 343° North 393 452 38,000  Level Oakland Center
10:49PM 41.3147 -121.4494 342° North 394 453 38,000  Level Oakland Center
10:50PM 41.4194 -121.4981 341° North 394 453 38,000  Level Seattle Center
10:51PM 41.5444 -121.5536 342° North 395 455 38,000  Level Seattle Center
10:52PM 41.6489 -121.5986 342° North 396 456 38,000  Level Seattle Center
10:53PM 41.7536 -121.6450 342° North 399 459 38,000  Level Seattle Center
10:54PM 41.8583 -121.6919 342° North 400 460 38,000  Level Seattle Center
10:55PM 41.9619 -121.7381 342° North 399 459 38,000  Level Seattle Center
10:56PM 42.0650 -121.7833 342° North 397 457 38,000  Level Seattle Center
10:57PM 42.1675 -121.8286 342° North 400 460 38,000  Level Seattle Center
10:58PM 42.2692 -121.8753 341° North 394 453 38,000  Level Seattle Center
10:59PM 42.3717 -121.9217 342° North 391 450 38,000  Level Seattle Center
11:00PM 42.4953 -121.9769 342° North 391 450 38,000  Level Seattle Center
11:01PM 42.5975 -122.0239 341° North 390 449 38,000  Level Seattle Center
11:02PM 42.7022 -122.0717 341° North 396 456 38,000  Level Seattle Center
11:03PM 42.8067 -122.1192 342° North 395 455 38,000  Level Seattle Center
11:04PM 42.9122 -122.1700 341° North 402 463 38,000  Level Seattle Center
11:05PM 43.0089 -122.2125 342° North 404 465 38,000  Level Seattle Center
11:06PM 43.1144 -122.2625 341° North 403 464 38,000  Level Seattle Center
11:07PM 43.2397 -122.3194 342° North 397 457 38,000  Level Seattle Center
11:08PM 43.3472 -122.3567 346° North 397 457 38,000  Level Seattle Center
11:09PM 43.4572 -122.3750 353° North 398 458 38,000  Level Seattle Center
11:10PM 43.5675 -122.3953 352° North 399 459 38,000 -900 Level Seattle Center
11:11PM 43.6778 -122.4169 352° North 401 461 36,300 -1,920 Descending Seattle Center
11:12PM 43.7878 -122.4375 352° North 402 463 34,200 -2,100 Descending Seattle Center
11:13PM 43.9011 -122.4600 352° North 411 473 32,100 -2,160 Descending Seattle Center
11:14PM 44.0156 -122.4811 352° North 417 480 29,900 -2,340 Descending Seattle Center
11:15PM 44.1322 -122.5050 352° North 424 488 27,500 -2,400 Descending Seattle Center
11:16PM 44.2508 -122.5278 352° North 432 497 25,100 -2,460 Descending Seattle Center
11:17PM 44.3694 -122.5519 352° North 434 499 22,600 -2,520 Descending Seattle Center
11:18PM 44.4822 -122.5731 352° North 418 481 20,100 -2,400 Descending Seattle Center
11:19PM 44.5906 -122.5950 352° North 401 461 17,800 -2,460 Descending Seattle Center
11:20PM 44.7175 -122.6225 351° North 400 460 15,100 -2,580 Descending Seattle Center
11:20PM 44.7400 -122.6286 349° North 392 451 14,600 -1,860 Descending Seattle Center
11:21PM 44.7806 -122.6367 352° North 388 447 13,900 -1,920 Descending Seattle Center
11:21PM 44.8211 -122.6425 354° North 385 443 13,100 -1,920 Descending Seattle Center
11:22PM 44.8822 -122.6567 351° North 369 425 12,000 -1,140 Descending Seattle Center
11:22PM 44.9194 -122.6622 354° North 368 423 12,000  Level Seattle Center
11:23PM 44.9953 -122.6692 356° North 349 402 12,000  Level Seattle Center
11:23PM 45.0161 -122.6664 North 354 407 12,000 -120 Level Seattle Center
11:24PM 45.0911 -122.6608 North 347 399 11,900 -120 Descending Seattle Center
11:24PM 45.1092 -122.6572 North 342 394 11,900 -1,140 Level Seattle Center
11:25PM 45.1719 -122.6528 North 273 314 10,800 -1,440 Descending Seattle Center
11:25PM 45.1864 -122.6494 North 288 331 10,500 -1,440 Descending Seattle Center
11:26PM 45.2631 -122.6414 North 278 320 9,000 -1,500 Descending Seattle Center
11:27PM 45.3247 -122.6369 North 278 320 7,900 -1,500 Descending Seattle Center
11:27PM 45.3397 -122.6336 North 277 319 7,500 -1,620 Descending Seattle Center
11:28PM 45.4033 -122.6294 North 259 298 6,300 -1,500 Descending Seattle Center
11:28PM 45.4119 -122.6272 10° North 266 306 6,000 -1,320 Descending Seattle Center
11:29PM 45.4625 -122.6761 326° Northwest 243 280 5,000 -1,020 Descending Seattle Center
11:29PM 45.4692 -122.6808 334° Northwest 257 296 5,000 -900 Level Seattle Center
11:30PM 45.5142 -122.7289 323° Northwest 224 258 4,100 -1,020 Descending Seattle Center
11:30PM 45.5214 -122.7325 341° North 237 273 4,000 -1,020 Descending Seattle Center
11:31PM 45.5644 -122.7733 326° Northwest 212 244 3,100 -1,020 Descending Seattle Center
11:31PM 45.5708 -122.7797 325° Northwest 224 258 3,000 -420 Descending Seattle Center
11:32PM 45.6169 -122.7767 North 164 189 2,700 -540 Descending Seattle Center
11:32PM 45.6203 -122.7731 37° Northeast 187 215 2,500 -840 Descending Seattle Center
11:33PM 45.6253 -122.7208 82° East 154 177 1,900 -900 Descending Seattle Center
11:33PM 45.6242 -122.7053 96° East 160 184 1,600 -780 Descending Seattle Center
11:34PM 45.6197 -122.6708 100° East 130 150 1,200 -720 Descending Seattle Center
11:34PM 45.6161 -122.6517 105° East 149 171 900 -600 Descending Seattle Center
11:35PM 45.6058 -122.6239 118° Southeast 124 143 600 -420 Descending Seattle Center
11:35PM 45.6047 -122.6147 100° East 140 161 500 -300 Descending Seattle Center
11:37PM 45.5887 -122.5969 48° Northeast  Level Estimated